Koosah.INFO

KSEA Weather Observatons

This table shows observations taken by aircraft in the Seattle, WA, US area since 2019-02-21T17:53:27-0800. By default, it is sorted by time observed in ascending order. Click on a column heading to sort by that column instead. Click again on the same column heading to sort in descending order.

Show observations taken in the last:

Return to main page.

Time Observed Time Received Altitude (ft) Latitude Longitude Temperature (˚C) Wind Direction Wind speed (kn) Frequency (MHz) Source
2019-02-21T19:19:00-0800 2019-02-21T19:20:25-0800 4113 47.5627 -122.3181 -4.0 (missing) (missing) 130.025 .N644AS
2019-02-21T18:49:00-0800 2019-02-21T18:50:29-0800 13230 47.511 -122.0854 -16.0 (missing) (missing) 130.025 .N546AS
2019-02-21T18:06:00-0800 2019-02-21T18:07:35-0800 4980 47.5718 -122.3101 -6.0 (missing) (missing) 130.025 .N549AS
2019-02-21T18:47:00-0800 2019-02-21T18:48:48-0800 9347 47.6219 -122.1854 -13.0 (missing) (missing) 130.025 .N546AS
2019-02-21T18:46:00-0800 2019-02-21T18:47:29-0800 8858 47.6073 -122.164 -12.0 (missing) (missing) 130.025 .N323AS
2019-02-21T18:21:00-0800 2019-02-21T18:22:42-0800 12159 47.527 -121.9784 -17.0 (missing) (missing) 130.025 .N523AS
2019-02-21T18:43:00-0800 2019-02-21T18:44:03-0800 1465 47.4798 -122.3077 3.0 (missing) (missing) 130.025 .N323AS
2019-02-21T18:42:00-0800 2019-02-21T18:43:22-0800 538 47.4573 -122.3078 5.0 210 4 130.025 .N323AS
2019-02-21T18:05:00-0800 2019-02-21T18:05:54-0800 1851 47.4868 -122.308 1.2 186 4 130.025 .N549AS
2019-02-21T18:05:00-0800 2019-02-21T18:05:54-0800 1998 47.4926 -122.308 1.0 176 5 130.025 .N549AS
2019-02-21T18:42:00-0800 2019-02-21T18:43:22-0800 778 47.4621 -122.3078 4.7 199 5 130.025 .N323AS
2019-02-21T18:42:00-0800 2019-02-21T18:43:22-0800 968 47.4669 -122.3077 4.2 193 5 130.025 .N323AS
2019-02-21T18:43:00-0800 2019-02-21T18:44:03-0800 1265 47.4746 -122.3077 3.5 178 5 130.025 .N323AS
2019-02-21T18:07:00-0800 2019-02-21T18:07:42-0800 7671 47.6178 -122.2366 -11.0 252 5 130.025 .N549AS
2019-02-21T18:05:00-0800 2019-02-21T18:05:54-0800 2146 47.4987 -122.3082 0.7 172 5 130.025 .N549AS
2019-02-21T18:43:00-0800 2019-02-21T18:44:03-0800 1059 47.4695 -122.3077 4.0 189 6 130.025 .N323AS
2019-02-21T18:45:00-0800 2019-02-21T18:45:55-0800 6900 47.6145 -122.2423 -9.7 251 6 130.025 .N323AS
2019-02-21T18:44:00-0800 2019-02-21T18:45:23-0800 1907 47.4887 -122.3077 1.0 157 6 130.025 .N546AS
2019-02-21T18:06:00-0800 2019-02-21T18:07:35-0800 3995 47.5477 -122.3094 -3.7 213 6 130.025 .N549AS
2019-02-21T18:05:00-0800 2019-02-21T18:07:35-0800 3084 47.5247 -122.3087 -1.2 193 6 130.025 .N549AS
2019-02-21T18:07:00-0800 2019-02-21T18:07:42-0800 6771 47.6121 -122.2745 -10.2 196 7 130.025 .N549AS
2019-02-21T18:44:00-0800 2019-02-21T18:45:23-0800 1772 47.4832 -122.3077 1.5 156 7 130.025 .N546AS
2019-02-21T18:44:00-0800 2019-02-21T18:45:23-0800 2073 47.4942 -122.3078 0.7 161 7 130.025 .N546AS
2019-02-21T18:45:00-0800 2019-02-21T18:47:29-0800 7057 47.6149 -122.2368 -10.0 257 7 130.025 .N323AS
2019-02-21T18:46:00-0800 2019-02-21T18:48:48-0800 7460 47.6222 -122.262 -10.5 229 8 130.025 .N546AS
2019-02-21T18:45:00-0800 2019-02-21T18:47:29-0800 7978 47.6157 -122.1995 -11.0 270 8 130.025 .N323AS
2019-02-21T18:20:00-0800 2019-02-21T18:21:04-0800 9149 47.586 -122.1346 -13.5 324 8 130.025 .N523AS
2019-02-21T19:18:00-0800 2019-02-21T19:20:25-0800 2635 47.5172 -122.3073 -1.0 193 9 130.025 .N644AS
2019-02-21T19:18:00-0800 2019-02-21T19:20:25-0800 3186 47.5397 -122.309 -2.0 194 10 130.025 .N644AS
2019-02-21T18:20:00-0800 2019-02-21T18:21:04-0800 10238 47.573 -122.1003 -15.7 330 10 130.025 .N523AS
2019-02-21T18:44:00-0800 2019-02-21T18:45:55-0800 5118 47.5936 -122.3046 -6.0 162 11 130.025 .N323AS
2019-02-21T18:47:00-0800 2019-02-21T18:48:48-0800 8440 47.6222 -122.2241 -12.2 313 11 130.025 .N546AS
2019-02-21T18:46:00-0800 2019-02-21T18:47:36-0800 10252 47.5591 -122.1386 -15.2 339 11 130.025 .N323AS
2019-02-21T18:43:00-0800 2019-02-21T18:43:33-0800 4021 47.2413 -122.3192 -3.7 204 11 130.025 .N526AS
2019-02-21T18:06:00-0800 2019-02-21T18:07:42-0800 5976 47.5953 -122.3016 -8.7 167 12 130.025 .N549AS
2019-02-21T18:47:00-0800 2019-02-21T18:47:36-0800 10492 47.5299 -122.1346 -15.2 350 12 130.025 .N323AS
2019-02-21T19:21:00-0800 2019-02-21T19:22:14-0800 10218 47.6221 -122.5073 -13.7 354 12 130.025 .N644AS
2019-02-21T18:20:00-0800 2019-02-21T18:21:04-0800 10615 47.5594 -122.0642 -16.7 339 13 130.025 .N523AS
2019-02-21T18:20:00-0800 2019-02-21T18:22:42-0800 10663 47.5572 -122.0586 -16.7 342 13 130.025 .N523AS
2019-02-21T18:45:00-0800 2019-02-21T18:45:55-0800 5926 47.6104 -122.2786 -7.7 189 14 130.025 .N323AS
2019-02-21T18:42:00-0800 2019-02-21T18:43:33-0800 5023 47.1855 -122.3243 -6.2 196 14 130.025 .N526AS
2019-02-21T18:21:00-0800 2019-02-21T18:22:42-0800 11307 47.5424 -122.0191 -16.7 356 15 130.025 .N523AS
2019-02-21T19:21:00-0800 2019-02-21T19:22:14-0800 10735 47.6245 -122.5468 -14.7 337 16 130.025 .N644AS
2019-02-21T18:41:00-0800 2019-02-21T18:43:33-0800 5559 47.1246 -122.3488 -7.5 207 16 130.025 .N526AS
2019-02-21T18:48:00-0800 2019-02-21T18:50:29-0800 12396 47.5431 -122.0879 -16.2 339 17 130.025 .N546AS
2019-02-21T18:46:00-0800 2019-02-21T18:47:36-0800 9675 47.586 -122.1422 -13.7 303 17 130.025 .N323AS
2019-02-21T18:21:00-0800 2019-02-21T18:22:48-0800 13046 47.5112 -121.9367 -16.7 358 17 130.025 .N523AS
2019-02-21T18:48:00-0800 2019-02-21T18:50:29-0800 11480 47.5742 -122.0915 -16.0 333 18 130.025 .N546AS
2019-02-21T19:21:00-0800 2019-02-21T19:22:14-0800 11041 47.6272 -122.5902 -14.7 329 20 130.025 .N644AS
2019-02-21T19:23:00-0800 2019-02-21T19:23:57-0800 14416 47.6391 -122.795 -17.7 339 23 130.025 .N644AS
2019-02-21T19:22:00-0800 2019-02-21T19:23:57-0800 13511 47.6367 -122.7445 -17.0 343 23 130.025 .N644AS
2019-02-21T18:22:00-0800 2019-02-21T18:22:48-0800 13948 47.495 -121.8943 -17.5 350 23 130.025 .N523AS
2019-02-21T19:23:00-0800 2019-02-21T19:23:57-0800 15467 47.6411 -122.8463 -19.7 343 25 130.025 .N644AS
2019-02-21T18:49:00-0800 2019-02-21T18:50:35-0800 15086 47.4446 -122.08 -19.5 346 25 130.025 .N546AS
2019-02-21T18:49:00-0800 2019-02-21T18:50:35-0800 14117 47.4781 -122.0826 -17.7 344 27 130.025 .N546AS
2019-02-21T18:22:00-0800 2019-02-21T18:22:48-0800 14848 47.4787 -121.8509 -19.5 350 27 130.025 .N523AS
2019-02-21T18:50:00-0800 2019-02-21T18:50:35-0800 15998 47.4106 -122.0766 -21.0 348 30 130.025 .N546AS